Time;durP1;ratioP1;P1;durP2;ratioP2;P2;SDS_P1;SDS_P2;PMS_P1;PMS_P2;Temp;Humidity;BMP_temperature;BMP_pressure;BME280_temperature;BME280_humidity;BME280_pressure;Samples;Min_cycle;Max_cycle;Signal;HPM_P1;HPM_P2
2022/08/24 00:00:52;;;;;;;0.90;0.70;;;25.60;46.10;;;;;;5059969;28;20448;-66
2022/08/24 00:03:18;;;;;;;1.00;0.80;;;25.60;46.10;;;;;;5060304;28;20108;-66
2022/08/24 00:05:43;;;;;;;1.13;0.70;;;25.60;46.10;;;;;;5061884;28;20025;-67
2022/08/24 00:08:09;;;;;;;1.48;0.80;;;25.50;46.10;;;;;;5059582;28;20021;-66
2022/08/24 00:10:34;;;;;;;0.98;0.77;;;25.60;46.10;;;;;;5059252;28;20028;-65
2022/08/24 00:13:00;;;;;;;1.77;1.00;;;25.60;46.10;;;;;;5061258;28;20132;-65
2022/08/24 00:15:26;;;;;;;0.70;0.70;;;25.50;46.10;;;;;;5060589;28;20029;-67
2022/08/24 00:17:52;;;;;;;0.77;0.68;;;25.50;46.10;;;;;;5059841;28;20029;-66
2022/08/24 00:20:17;;;;;;;0.70;0.70;;;25.50;46.10;;;;;;5061818;28;20021;-66
2022/08/24 00:22:43;;;;;;;0.98;0.70;;;25.50;46.10;;;;;;5060642;28;20025;-66
2022/08/24 00:25:10;;;;;;;0.95;0.70;;;25.50;46.20;;;;;;5059973;28;20036;-66
2022/08/24 00:27:37;;;;;;;1.20;0.70;;;25.50;46.70;;;;;;5061265;28;20020;-66
2022/08/24 00:30:09;;;;;;;1.02;0.70;;;25.50;46.70;;;;;;5063115;28;20103;-66
2022/08/24 00:32:36;;;;;;;1.15;0.70;;;25.50;46.20;;;;;;5059039;28;20400;-66
2022/08/24 00:35:04;;;;;;;0.88;0.70;;;25.50;46.20;;;;;;5060528;28;20029;-66
2022/08/24 00:37:29;;;;;;;0.90;0.80;;;25.50;46.20;;;;;;5060436;28;20029;-65
2022/08/24 00:39:56;;;;;;;0.88;0.77;;;25.50;46.20;;;;;;5059118;28;20036;-66
2022/08/24 00:42:21;;;;;;;0.85;0.70;;;25.50;46.20;;;;;;5060635;28;20485;-65
2022/08/24 00:44:47;;;;;;;1.15;0.70;;;25.50;46.20;;;;;;5059534;28;20067;-66
2022/08/24 00:47:24;;;;;;;0.80;0.73;;;25.50;46.20;;;;;;5061688;28;20032;-65
2022/08/24 00:50:03;;;;;;;1.65;0.80;;;25.50;46.30;;;;;;5058659;28;20480;-66
2022/08/24 00:52:37;;;;;;;0.82;0.60;;;25.50;46.30;;;;;;5057640;28;20037;-66
2022/08/24 00:55:11;;;;;;;0.90;0.60;;;25.50;46.30;;;;;;5061528;28;20487;-67
2022/08/24 00:57:40;;;;;;;1.10;0.80;;;25.50;46.30;;;;;;5063504;28;20158;-65
2022/08/24 01:00:23;;;;;;;1.30;0.73;;;25.50;46.30;;;;;;5063586;28;20096;-66
2022/08/24 01:02:53;;;;;;;1.27;0.80;;;25.50;46.40;;;;;;5064232;28;20691;-66
2022/08/24 01:05:18;;;;;;;0.85;0.70;;;25.50;46.40;;;;;;5063721;28;20025;-66
2022/08/24 01:07:47;;;;;;;1.00;0.73;;;25.50;46.40;;;;;;5063414;28;20025;-66
2022/08/24 01:10:18;;;;;;;0.95;0.70;;;25.50;46.40;;;;;;5063957;28;20333;-67
2022/08/24 01:12:47;;;;;;;0.60;0.60;;;25.50;46.40;;;;;;5061525;28;20051;-66
2022/08/24 01:15:14;;;;;;;1.75;0.80;;;25.50;46.40;;;;;;5063878;28;20361;-67
2022/08/24 01:21:25;;;;;;;1.17;0.88;;;25.50;46.40;;;;;;5063289;28;20023;-66
2022/08/24 01:23:56;;;;;;;;;;;25.50;46.40;;;;;;5062292;28;20035;-66
2022/08/24 01:26:25;;;;;;;0.90;0.65;;;25.40;46.30;;;;;;5063334;28;19904;-66
2022/08/24 01:28:55;;;;;;;0.93;0.70;;;25.40;46.40;;;;;;5064875;28;20468;-66
2022/08/24 01:31:22;;;;;;;0.70;0.70;;;25.50;46.40;;;;;;5063479;28;20480;-66
2022/08/24 01:33:50;;;;;;;0.73;0.70;;;25.40;46.40;;;;;;5063563;28;20032;-66
2022/08/24 01:36:36;;;;;;;0.80;0.63;;;25.40;46.40;;;;;;5061735;28;20426;-67
2022/08/24 01:39:11;;;;;;;1.25;0.65;;;25.40;46.40;;;;;;5063527;28;20483;-67
2022/08/24 01:41:36;;;;;;;1.15;0.82;;;25.40;46.40;;;;;;5062137;28;20476;-67
2022/08/24 01:44:03;;;;;;;1.05;0.73;;;25.40;46.40;;;;;;5061537;28;20067;-66
2022/08/24 01:46:28;;;;;;;1.02;0.70;;;25.40;46.40;;;;;;5063669;28;20033;-66
2022/08/24 01:48:56;;;;;;;0.75;0.60;;;25.40;46.40;;;;;;5062661;28;20039;-65
2022/08/24 01:51:23;;;;;;;0.85;0.70;;;25.40;46.50;;;;;;5062439;28;20558;-66
2022/08/24 01:53:49;;;;;;;0.90;0.70;;;25.40;46.50;;;;;;5063821;28;20094;-66
2022/08/24 01:56:15;;;;;;;0.93;0.73;;;25.40;47.00;;;;;;5062127;28;20461;-69
2022/08/24 01:58:45;;;;;;;1.58;0.80;;;25.40;46.50;;;;;;5060764;28;20017;-66
2022/08/24 02:01:12;;;;;;;1.02;0.80;;;25.40;46.50;;;;;;5078492;28;20036;-65
2022/08/24 02:03:38;;;;;;;0.80;0.70;;;25.40;46.50;;;;;;5063666;28;20059;-67
2022/08/24 02:06:04;;;;;;;0.70;0.70;;;25.40;46.50;;;;;;5061751;28;20052;-66
2022/08/24 02:08:31;;;;;;;0.73;0.70;;;25.40;46.60;;;;;;5077508;28;20435;-66
2022/08/24 02:10:56;;;;;;;0.82;0.70;;;25.40;46.60;;;;;;5062200;28;20118;-66
2022/08/24 02:13:22;;;;;;;0.70;0.60;;;25.40;46.60;;;;;;5062193;28;20124;-65
2022/08/24 02:15:47;;;;;;;1.60;0.60;;;25.40;46.60;;;;;;5061893;28;20036;-66
2022/08/24 02:18:13;;;;;;;0.80;0.70;;;25.40;46.50;;;;;;5062896;28;20036;-66
2022/08/24 02:20:39;;;;;;;0.90;0.70;;;25.40;46.60;;;;;;5061605;28;20427;-66
2022/08/24 02:23:06;;;;;;;0.70;0.60;;;25.40;46.60;;;;;;5062827;28;20067;-66
2022/08/24 02:25:32;;;;;;;0.82;0.70;;;25.40;46.60;;;;;;5063560;28;20025;-66
2022/08/24 02:27:59;;;;;;;0.77;0.70;;;25.40;46.60;;;;;;5061768;28;20480;-67
2022/08/24 02:30:26;;;;;;;0.63;0.60;;;25.40;46.60;;;;;;5059637;28;20556;-67
2022/08/24 02:32:52;;;;;;;0.82;0.68;;;25.40;46.60;;;;;;5061290;28;20076;-65
2022/08/24 02:35:17;;;;;;;0.60;0.60;;;25.40;46.60;;;;;;5062200;28;20052;-66
2022/08/24 02:37:43;;;;;;;0.80;0.60;;;25.40;46.60;;;;;;5061634;28;20024;-66
2022/08/24 02:40:09;;;;;;;0.68;0.68;;;25.30;46.60;;;;;;5062269;28;20097;-66
2022/08/24 02:42:35;;;;;;;1.27;0.80;;;25.40;46.60;;;;;;5061881;28;20430;-65
2022/08/24 02:45:03;;;;;;;0.73;0.70;;;25.40;46.70;;;;;;5061633;28;20032;-66
2022/08/24 02:47:29;;;;;;;0.93;0.70;;;25.40;46.70;;;;;;5062547;28;20489;-66
2022/08/24 02:49:54;;;;;;;1.02;0.70;;;25.30;46.60;;;;;;5061445;28;20039;-65
2022/08/24 02:52:20;;;;;;;0.75;0.60;;;25.40;46.70;;;;;;5061787;28;20033;-65
2022/08/24 02:54:46;;;;;;;0.73;0.60;;;25.40;46.70;;;;;;5061286;28;20025;-66
2022/08/24 02:57:11;;;;;;;0.75;0.70;;;25.30;46.60;;;;;;5060866;28;20028;-67
2022/08/24 02:59:37;;;;;;;1.02;0.70;;;25.30;46.60;;;;;;5062304;28;20028;-66
2022/08/24 03:02:03;;;;;;;1.00;0.80;;;25.30;46.60;;;;;;5061759;28;20033;-67
2022/08/24 03:04:28;;;;;;;0.68;0.65;;;25.30;46.60;;;;;;5060807;28;20056;-67
2022/08/24 03:06:54;;;;;;;0.75;0.63;;;25.30;47.20;;;;;;5061984;28;20024;-66
2022/08/24 03:09:19;;;;;;;0.60;0.60;;;25.30;46.60;;;;;;5060694;28;20040;-66
2022/08/24 03:11:45;;;;;;;0.70;0.70;;;25.30;46.70;;;;;;5062406;28;20028;-66
2022/08/24 03:14:11;;;;;;;0.60;0.60;;;25.30;46.70;;;;;;5062246;28;20070;-67
2022/08/24 03:16:37;;;;;;;0.80;0.70;;;25.30;46.70;;;;;;5061357;28;20032;-66
2022/08/24 03:19:03;;;;;;;0.90;0.70;;;25.30;46.70;;;;;;5061276;28;20122;-66
2022/08/24 03:21:28;;;;;;;0.75;0.70;;;25.30;46.70;;;;;;5061172;28;20031;-65
2022/08/24 03:23:54;;;;;;;0.70;0.65;;;25.30;46.70;;;;;;5061384;28;20042;-65
2022/08/24 03:26:21;;;;;;;0.63;0.60;;;25.30;46.70;;;;;;5061152;28;20458;-67
2022/08/24 03:28:47;;;;;;;0.80;0.70;;;25.30;46.80;;;;;;5061207;28;20020;-66
2022/08/24 03:31:13;;;;;;;1.55;0.80;;;25.30;46.80;;;;;;5061492;28;20036;-66
2022/08/24 03:33:38;;;;;;;0.60;0.60;;;25.30;46.80;;;;;;5059812;28;20025;-66
2022/08/24 03:36:05;;;;;;;0.90;0.68;;;25.30;46.80;;;;;;5057776;28;20484;-67
2022/08/24 03:38:30;;;;;;;0.82;0.70;;;25.30;46.80;;;;;;5061646;28;20012;-65
2022/08/24 03:40:56;;;;;;;0.80;0.70;;;25.20;46.70;;;;;;5060494;28;20429;-66
2022/08/24 03:46:10;;;;;;;0.70;0.70;;;25.30;46.80;;;;;;5062067;28;20035;-65
2022/08/24 03:48:37;;;;;;;0.60;0.60;;;25.30;46.80;;;;;;5059393;28;20025;-65
2022/08/24 03:51:02;;;;;;;0.95;0.80;;;25.30;46.80;;;;;;5062172;28;20468;-65
2022/08/24 03:53:28;;;;;;;0.70;0.70;;;25.20;47.30;;;;;;5058379;28;20092;-66
2022/08/24 03:55:53;;;;;;;0.70;0.70;;;25.30;46.80;;;;;;5061769;28;20036;-66
2022/08/24 03:58:19;;;;;;;0.60;0.60;;;25.30;46.80;;;;;;5060678;28;20460;-65
2022/08/24 04:00:45;;;;;;;0.80;0.60;;;25.30;46.80;;;;;;5060377;28;20037;-66
2022/08/24 04:03:11;;;;;;;0.60;0.60;;;25.20;46.70;;;;;;5060995;28;20041;-66
2022/08/24 04:05:38;;;;;;;0.68;0.60;;;25.30;46.80;;;;;;5059979;28;20260;-66
2022/08/24 04:08:05;;;;;;;0.80;0.60;;;25.20;46.80;;;;;;5061461;28;20095;-67
2022/08/24 04:10:33;;;;;;;0.60;0.60;;;25.20;46.80;;;;;;5058942;28;20162;-65
2022/08/24 04:13:00;;;;;;;1.75;0.70;;;25.20;46.80;;;;;;5061527;28;20042;-66
2022/08/24 04:15:26;;;;;;;0.85;0.68;;;25.20;46.80;;;;;;5060560;28;20485;-67
2022/08/24 04:17:52;;;;;;;0.50;0.50;;;25.20;46.80;;;;;;5059657;28;20021;-66
2022/08/24 04:20:18;;;;;;;0.73;0.73;;;25.20;46.80;;;;;;5061549;28;20031;-65
2022/08/24 04:22:44;;;;;;;1.90;0.70;;;25.20;46.70;;;;;;5059978;28;20444;-66
2022/08/24 04:25:10;;;;;;;0.88;0.70;;;25.20;46.80;;;;;;5060902;28;20028;-66
2022/08/24 04:27:38;;;;;;;0.65;0.65;;;25.20;46.80;;;;;;5060502;28;20498;-65
2022/08/24 04:30:06;;;;;;;0.60;0.60;;;25.20;46.80;;;;;;5061396;28;20052;-66
2022/08/24 04:32:32;;;;;;;0.50;0.50;;;25.20;46.80;;;;;;5063770;28;20554;-65
2022/08/24 04:34:58;;;;;;;0.98;0.80;;;25.20;46.80;;;;;;5064661;28;20025;-65
2022/08/24 04:37:24;;;;;;;1.08;0.75;;;25.20;46.70;;;;;;5064636;28;20036;-66
2022/08/24 04:39:50;;;;;;;0.70;0.60;;;25.20;46.70;;;;;;5064066;28;20029;-66
2022/08/24 04:42:16;;;;;;;0.77;0.65;;;25.20;46.80;;;;;;5064475;28;20480;-65
2022/08/24 04:44:42;;;;;;;0.68;0.68;;;25.20;46.70;;;;;;5061681;28;20036;-66
2022/08/24 04:47:08;;;;;;;0.70;0.60;;;25.20;46.80;;;;;;5064019;28;20036;-66
2022/08/24 04:49:34;;;;;;;0.50;0.50;;;25.20;46.70;;;;;;5063321;28;20057;-65
2022/08/24 04:52:01;;;;;;;0.70;0.70;;;25.20;46.80;;;;;;5064046;28;20061;-65
2022/08/24 04:54:26;;;;;;;0.60;0.60;;;25.20;47.30;;;;;;5063358;28;20029;-66
2022/08/24 04:56:52;;;;;;;0.60;0.60;;;25.20;46.70;;;;;;5063607;28;20044;-66
2022/08/24 04:59:18;;;;;;;0.70;0.70;;;25.20;46.80;;;;;;5064682;28;20622;-66
2022/08/24 05:01:44;;;;;;;0.60;0.60;;;25.20;46.70;;;;;;5063344;28;20397;-66
2022/08/24 05:04:10;;;;;;;0.70;0.60;;;25.20;46.80;;;;;;5062933;28;20029;-66
2022/08/24 05:06:36;;;;;;;0.50;0.50;;;25.20;46.80;;;;;;5063670;28;20518;-66
2022/08/24 05:09:03;;;;;;;0.82;0.70;;;25.20;46.80;;;;;;5063335;28;20033;-66
2022/08/24 05:11:29;;;;;;;0.70;0.60;;;25.20;46.80;;;;;;5061972;28;20047;-66
2022/08/24 05:13:57;;;;;;;0.60;0.60;;;25.20;46.80;;;;;;5064297;28;20551;-65
2022/08/24 05:16:23;;;;;;;0.60;0.60;;;25.20;47.30;;;;;;5063411;28;20504;-66
2022/08/24 05:18:49;;;;;;;0.57;0.57;;;25.20;46.80;;;;;;5062353;28;20052;-66
2022/08/24 05:21:19;;;;;;;0.77;0.60;;;25.20;46.80;;;;;;5064316;28;20140;-66
2022/08/24 05:23:45;;;;;;;0.60;0.60;;;25.20;46.80;;;;;;5062601;28;20047;-65
2022/08/24 05:26:16;;;;;;;0.65;0.60;;;25.20;46.80;;;;;;5063427;28;20476;-65
2022/08/24 05:28:42;;;;;;;0.70;0.70;;;25.20;46.80;;;;;;5061971;28;20024;-66
2022/08/24 05:31:12;;;;;;;0.50;0.50;;;25.20;46.80;;;;;;5064540;28;20056;-66
2022/08/24 05:33:38;;;;;;;0.77;0.70;;;25.20;46.80;;;;;;5060767;28;20547;-66
2022/08/24 05:36:13;;;;;;;0.60;0.60;;;25.20;46.80;;;;;;5064196;28;20107;-66
2022/08/24 05:38:38;;;;;;;1.50;0.70;;;25.20;46.80;;;;;;5063012;28;20032;-65
2022/08/24 05:41:04;;;;;;;0.65;0.55;;;25.20;46.80;;;;;;5063203;28;20035;-65
2022/08/24 05:43:30;;;;;;;0.60;0.60;;;25.20;46.80;;;;;;5060360;28;20490;-65
2022/08/24 05:45:56;;;;;;;1.10;0.70;;;25.10;46.80;;;;;;5063041;28;20071;-66
2022/08/24 05:48:22;;;;;;;0.90;0.65;;;25.10;46.70;;;;;;5063432;28;20108;-66
2022/08/24 05:50:56;;;;;;;0.60;0.60;;;25.10;46.70;;;;;;5062099;28;20035;-65
2022/08/24 05:53:21;;;;;;;0.88;0.60;;;25.10;46.70;;;;;;5061756;28;20041;-66
2022/08/24 05:55:47;;;;;;;0.68;0.68;;;25.10;46.70;;;;;;5062677;28;20566;-66
2022/08/24 05:58:13;;;;;;;0.80;0.60;;;25.10;46.80;;;;;;5062861;28;20024;-66
2022/08/24 06:00:39;;;;;;;0.57;0.50;;;25.10;46.80;;;;;;5062352;28;20040;-66
2022/08/24 06:03:05;;;;;;;0.70;0.70;;;25.10;46.80;;;;;;5062122;28;20034;-66
2022/08/24 06:05:30;;;;;;;0.50;0.50;;;25.10;46.80;;;;;;5062714;28;20033;-66
2022/08/24 06:07:56;;;;;;;0.60;0.57;;;25.10;46.80;;;;;;5061838;28;20035;-66
2022/08/24 06:10:21;;;;;;;0.60;0.57;;;25.10;46.80;;;;;;5062659;28;20040;-66
2022/08/24 06:12:47;;;;;;;0.60;0.60;;;25.10;46.80;;;;;;5061460;28;20388;-66
2022/08/24 06:15:14;;;;;;;0.80;0.65;;;25.10;46.80;;;;;;5062586;28;20036;-66
2022/08/24 06:17:39;;;;;;;0.60;0.60;;;25.10;46.80;;;;;;5061530;28;20032;-66
2022/08/24 06:20:06;;;;;;;0.60;0.60;;;25.10;46.80;;;;;;5062347;28;20032;-66
2022/08/24 06:22:32;;;;;;;0.63;0.60;;;25.10;46.80;;;;;;5061512;28;20053;-65
2022/08/24 06:27:44;;;;;;;0.60;0.60;;;25.10;46.80;;;;;;5060207;28;20047;-66
2022/08/24 06:30:10;;;;;;;0.73;0.70;;;25.10;46.80;;;;;;5061518;28;20028;-65
2022/08/24 06:32:38;;;;;;;0.55;0.55;;;25.10;46.80;;;;;;5061913;28;20401;-66
2022/08/24 06:35:04;;;;;;;0.93;0.60;;;25.10;47.30;;;;;;5061817;28;20021;-65
2022/08/24 06:37:30;;;;;;;0.60;0.60;;;25.10;46.80;;;;;;5059672;28;20013;-66
2022/08/24 06:39:58;;;;;;;0.60;0.60;;;25.10;46.80;;;;;;5061365;28;20103;-66
2022/08/24 06:42:23;;;;;;;0.60;0.60;;;25.10;46.80;;;;;;5062797;28;20029;-66
2022/08/24 06:44:50;;;;;;;0.70;0.70;;;25.10;46.90;;;;;;5060835;28;20416;-65
2022/08/24 06:47:16;;;;;;;0.55;0.50;;;25.00;46.80;;;;;;5059722;28;20477;-66
2022/08/24 06:49:41;;;;;;;0.93;0.60;;;25.10;46.90;;;;;;5062141;28;20029;-66
2022/08/24 06:52:08;;;;;;;2.72;1.60;;;25.10;46.90;;;;;;5061542;28;20024;-66
2022/08/24 06:54:35;;;;;;;4.30;2.33;;;25.10;48.20;;;;;;5061532;28;20028;-66
2022/08/24 06:57:00;;;;;;;3.67;2.30;;;25.10;48.80;;;;;;5060739;28;20023;-66
2022/08/24 06:59:26;;;;;;;3.63;2.25;;;25.00;49.40;;;;;;5061292;28;20025;-66
2022/08/24 07:01:54;;;;;;;3.75;2.60;;;25.00;49.90;;;;;;5062442;28;20417;-66
2022/08/24 07:04:20;;;;;;;3.53;2.40;;;24.90;50.10;;;;;;5060696;28;20473;-66
2022/08/24 07:06:46;;;;;;;3.30;2.75;;;24.90;50.60;;;;;;5061601;28;20035;-66
2022/08/24 07:09:12;;;;;;;3.50;2.58;;;24.80;50.90;;;;;;5060757;28;20416;-66
2022/08/24 07:11:38;;;;;;;4.45;2.65;;;24.80;51.30;;;;;;5061709;28;20041;-66
2022/08/24 07:14:04;;;;;;;3.97;2.88;;;24.70;51.40;;;;;;5061889;28;20502;-66
2022/08/24 07:16:29;;;;;;;4.13;2.72;;;24.70;51.60;;;;;;5061123;28;20426;-66
2022/08/24 07:18:55;;;;;;;3.30;2.50;;;24.60;51.70;;;;;;5061224;28;20486;-66
2022/08/24 07:21:21;;;;;;;2.83;2.28;;;24.60;52.00;;;;;;5060275;28;20176;-66
2022/08/24 07:23:48;;;;;;;3.72;2.60;;;24.60;52.30;;;;;;5062413;28;20040;-66
2022/08/24 07:26:18;;;;;;;3.47;2.80;;;24.60;52.60;;;;;;5061553;28;20029;-66
2022/08/24 07:28:44;;;;;;;3.40;2.60;;;24.50;52.50;;;;;;5060310;28;20033;-66
2022/08/24 07:31:12;;;;;;;3.40;2.55;;;24.50;53.20;;;;;;5060321;28;20035;-66
2022/08/24 07:33:38;;;;;;;3.63;2.80;;;24.40;53.10;;;;;;5059971;28;20064;-66
2022/08/24 07:36:04;;;;;;;3.72;2.90;;;24.40;53.20;;;;;;5060010;28;20433;-66
2022/08/24 07:38:30;;;;;;;4.18;2.50;;;24.40;53.20;;;;;;5061698;28;20047;-65
2022/08/24 07:40:58;;;;;;;3.30;2.30;;;24.40;53.40;;;;;;5059766;28;20029;-66
2022/08/24 07:43:24;;;;;;;4.82;2.90;;;24.30;53.60;;;;;;5061606;28;20036;-66
2022/08/24 07:45:50;;;;;;;3.35;2.60;;;24.30;53.70;;;;;;5059188;28;20037;-67
2022/08/24 07:48:16;;;;;;;3.53;2.75;;;24.30;53.80;;;;;;5061305;28;20404;-66
2022/08/24 07:50:42;;;;;;;3.17;2.63;;;24.30;53.90;;;;;;5058636;28;20108;-66
2022/08/24 07:53:08;;;;;;;3.30;2.75;;;24.30;54.00;;;;;;5059309;28;20037;-66
2022/08/24 07:55:33;;;;;;;3.40;2.20;;;24.30;54.20;;;;;;5059580;28;20021;-66
2022/08/24 07:58:00;;;;;;;3.47;2.60;;;24.20;54.30;;;;;;5061765;28;20476;-66
2022/08/24 08:00:25;;;;;;;3.45;2.60;;;24.20;54.10;;;;;;5074547;28;20434;-66
2022/08/24 08:02:51;;;;;;;3.03;2.17;;;24.20;54.10;;;;;;5058433;28;20033;-66
2022/08/24 08:05:20;;;;;;;2.88;2.03;;;24.20;54.30;;;;;;5060551;28;20422;-65
2022/08/24 08:07:46;;;;;;;3.00;2.17;;;24.20;54.80;;;;;;5064699;28;20032;-66
2022/08/24 08:10:12;;;;;;;4.43;2.60;;;24.10;55.10;;;;;;5064586;28;20484;-66
2022/08/24 08:12:38;;;;;;;3.55;2.30;;;24.10;54.40;;;;;;5062468;28;20060;-66
2022/08/24 08:15:05;;;;;;;2.83;2.20;;;24.10;54.40;;;;;;5064843;28;20056;-66
2022/08/24 08:17:31;;;;;;;2.72;1.98;;;24.10;54.70;;;;;;5064693;28;20464;-66
2022/08/24 08:19:56;;;;;;;2.70;2.00;;;24.10;54.60;;;;;;5064523;28;20035;-66
2022/08/24 08:25:07;;;;;;;2.80;2.30;;;24.10;54.90;;;;;;5063202;28;20186;-66
2022/08/24 08:27:34;;;;;;;2.55;1.92;;;24.10;54.70;;;;;;5062984;28;20029;-66
2022/08/24 08:30:00;;;;;;;2.63;2.03;;;24.10;54.90;;;;;;5064590;28;20377;-65
2022/08/24 08:32:26;;;;;;;2.45;1.80;;;24.10;54.90;;;;;;5062943;28;20037;-65
2022/08/24 08:34:52;;;;;;;2.53;1.63;;;24.10;55.10;;;;;;5063055;28;20559;-66
2022/08/24 08:37:18;;;;;;;2.75;1.60;;;24.10;55.20;;;;;;5063450;28;20133;-66
2022/08/24 08:39:44;;;;;;;2.42;1.50;;;24.10;55.20;;;;;;5061246;28;20083;-66
2022/08/24 08:42:28;;;;;;;2.50;1.35;;;24.00;55.10;;;;;;5062865;28;20036;-66
2022/08/24 08:45:15;;;;;;;2.55;1.50;;;24.00;55.20;;;;;;5062725;28;20368;-66
2022/08/24 08:48:05;;;;;;;2.13;1.50;;;24.00;55.00;;;;;;5060764;28;20479;-65
2022/08/24 08:50:48;;;;;;;1.95;1.30;;;24.00;54.80;;;;;;5062272;28;20029;-66
2022/08/24 08:53:23;;;;;;;2.45;1.35;;;24.00;54.70;;;;;;5062899;28;20021;-65
2022/08/24 08:55:57;;;;;;;1.98;1.60;;;24.00;54.60;;;;;;5061854;28;20032;-66
2022/08/24 08:58:34;;;;;;;1.92;1.33;;;24.00;54.60;;;;;;5062362;28;20044;-65
2022/08/24 09:01:22;;;;;;;2.20;1.50;;;24.00;54.50;;;;;;5061219;28;20168;-64
2022/08/24 09:04:13;;;;;;;1.92;1.45;;;24.00;54.40;;;;;;5062875;28;20094;-64
2022/08/24 09:06:57;;;;;;;1.83;1.40;;;24.00;54.40;;;;;;5060287;28;20055;-65
2022/08/24 09:09:47;;;;;;;1.70;1.38;;;24.10;54.30;;;;;;5061908;28;20464;-64
2022/08/24 09:12:31;;;;;;;1.95;1.48;;;24.00;54.30;;;;;;5064150;28;20123;-65
2022/08/24 09:15:22;;;;;;;1.92;1.48;;;24.10;54.20;;;;;;5064071;28;20028;-64
2022/08/24 09:18:12;;;;;;;1.90;1.38;;;24.10;54.10;;;;;;5063965;28;20484;-64
2022/08/24 09:21:27;;;;;;;1.90;1.45;;;24.10;54.10;;;;;;5060939;28;20035;-64
2022/08/24 09:24:04;;;;;;;1.98;1.33;;;24.10;54.00;;;;;;5062527;28;20783;-65
2022/08/24 09:26:46;;;;;;;2.10;1.30;;;24.10;53.90;;;;;;5064007;28;20025;-64
2022/08/24 09:29:17;;;;;;;2.25;1.48;;;24.10;53.80;;;;;;5063314;28;20494;-65
2022/08/24 09:32:02;;;;;;;2.03;1.50;;;24.10;53.70;;;;;;5062431;28;20519;-65
2022/08/24 09:34:50;;;;;;;2.33;1.50;;;24.10;53.60;;;;;;5063258;28;20388;-64
2022/08/24 09:37:41;;;;;;;2.28;1.40;;;24.10;53.60;;;;;;5062143;28;20025;-64
2022/08/24 09:40:38;;;;;;;1.90;1.60;;;24.10;53.50;;;;;;5077972;28;20028;-64
2022/08/24 09:43:28;;;;;;;2.15;1.45;;;24.10;53.40;;;;;;5063086;28;20079;-64
2022/08/24 09:46:24;;;;;;;1.77;1.30;;;24.20;53.40;;;;;;5062012;28;20032;-64
2022/08/24 09:49:27;;;;;;;1.83;1.30;;;24.20;53.30;;;;;;5062684;28;20484;-65
2022/08/24 09:51:59;;;;;;;1.83;1.50;;;24.20;53.30;;;;;;5061714;28;20029;-64
2022/08/24 09:55:03;;;;;;;1.52;1.30;;;24.20;53.10;;;;;;5062096;28;20027;-65
2022/08/24 09:57:51;;;;;;;1.55;1.25;;;24.20;53.10;;;;;;5063574;28;20040;-64
2022/08/24 10:00:33;;;;;;;1.70;1.30;;;24.20;53.00;;;;;;5061886;28;20020;-64
2022/08/24 10:03:07;;;;;;;1.55;1.30;;;24.20;53.40;;;;;;5063559;28;20037;-64
2022/08/24 10:05:54;;;;;;;1.40;1.20;;;24.30;52.90;;;;;;5062129;28;20551;-64
2022/08/24 10:08:57;;;;;;;2.25;1.40;;;24.30;52.80;;;;;;5061311;28;20029;-64
2022/08/24 10:11:38;;;;;;;1.77;1.40;;;24.30;52.70;;;;;;5062243;28;20055;-65
2022/08/24 10:14:21;;;;;;;1.40;1.23;;;24.30;52.60;;;;;;5061592;28;20522;-65
2022/08/24 10:16:52;;;;;;;1.48;1.10;;;24.30;52.50;;;;;;5062429;28;20021;-65
2022/08/24 10:19:35;;;;;;;1.92;1.33;;;24.30;52.40;;;;;;5062089;28;20107;-64
2022/08/24 10:22:30;;;;;;;1.60;1.20;;;24.30;52.30;;;;;;5062812;28;20035;-65
2022/08/24 10:25:17;;;;;;;1.90;1.30;;;24.30;52.30;;;;;;5060698;28;20031;-64
2022/08/24 10:28:06;;;;;;;2.10;1.33;;;24.30;52.20;;;;;;5060448;28;20032;-64
2022/08/24 10:31:10;;;;;;;1.85;1.25;;;24.40;52.10;;;;;;5059992;28;20047;-64
2022/08/24 10:34:03;;;;;;;1.33;1.20;;;24.40;52.10;;;;;;5060454;28;20142;-65
2022/08/24 10:37:01;;;;;;;1.77;1.20;;;24.40;52.00;;;;;;5062289;28;20031;-64
2022/08/24 10:40:07;;;;;;;1.75;1.20;;;24.40;52.00;;;;;;5058532;28;20469;-64
2022/08/24 10:46:04;;;;;;;1.60;1.10;;;24.40;51.90;;;;;;4999400;28;20182;-64
2022/08/24 10:48:30;;;;;;;1.60;1.17;;;24.40;51.80;;;;;;4997433;28;20474;-65
2022/08/24 10:51:26;;;;;;;1.73;1.30;;;24.40;51.80;;;;;;5040172;28;20036;-64
2022/08/24 10:53:53;;;;;;;1.63;1.17;;;24.40;51.80;;;;;;5063033;28;20036;-65
2022/08/24 10:56:42;;;;;;;1.63;1.40;;;24.40;51.70;;;;;;5060830;28;20032;-65
2022/08/24 10:59:16;;;;;;;1.70;1.30;;;24.40;51.70;;;;;;5060118;28;20511;-64
2022/08/24 11:02:09;;;;;;;1.65;1.20;;;24.40;51.60;;;;;;5060944;28;20051;-66
2022/08/24 11:04:38;;;;;;;1.45;1.17;;;24.40;51.60;;;;;;5061503;28;20422;-64
2022/08/24 11:07:19;;;;;;;1.45;1.23;;;24.40;51.50;;;;;;5060879;28;20040;-65
2022/08/24 11:09:57;;;;;;;1.52;1.25;;;24.50;51.60;;;;;;5060931;28;20108;-65
2022/08/24 11:12:30;;;;;;;1.20;1.10;;;24.40;51.50;;;;;;5061797;28;20063;-65
2022/08/24 11:15:00;;;;;;;1.85;1.30;;;24.40;52.00;;;;;;5061115;28;20091;-64
2022/08/24 11:17:28;;;;;;;1.85;1.40;;;24.50;51.50;;;;;;5061068;28;20064;-66
2022/08/24 11:19:55;;;;;;;1.50;1.20;;;24.50;51.50;;;;;;5060822;28;20021;-64
2022/08/24 11:22:55;;;;;;;1.45;1.00;;;24.50;51.40;;;;;;5061497;28;20485;-63
2022/08/24 11:25:31;;;;;;;1.92;1.13;;;24.50;51.40;;;;;;5061657;28;20148;-63
2022/08/24 11:28:25;;;;;;;1.60;1.30;;;24.50;51.40;;;;;;5058142;28;20029;-65
2022/08/24 11:30:51;;;;;;;1.38;1.13;;;24.50;51.40;;;;;;5045060;28;20036;-65
2022/08/24 11:33:33;;;;;;;2.00;1.40;;;24.50;51.40;;;;;;5075830;28;20602;-65
2022/08/24 11:36:00;;;;;;;1.70;1.23;;;24.50;51.40;;;;;;5060129;28;20074;-66
2022/08/24 11:38:30;;;;;;;1.60;1.35;;;24.50;51.30;;;;;;5061118;28;20416;-66
2022/08/24 11:41:17;;;;;;;1.40;1.10;;;24.50;51.30;;;;;;5059924;28;20024;-65
2022/08/24 11:44:03;;;;;;;1.40;1.20;;;24.50;51.30;;;;;;5060925;28;20415;-65
2022/08/24 11:46:49;;;;;;;1.80;1.30;;;24.50;51.30;;;;;;5059142;28;20016;-64
2022/08/24 11:49:33;;;;;;;1.83;1.33;;;24.60;51.40;;;;;;5059342;28;20299;-65
2022/08/24 11:52:08;;;;;;;1.98;1.25;;;24.60;51.40;;;;;;5061429;28;20082;-64
2022/08/24 11:54:49;;;;;;;1.70;1.10;;;24.60;51.40;;;;;;5059350;28;20487;-64
2022/08/24 11:57:24;;;;;;;1.23;1.00;;;24.50;51.30;;;;;;5060778;28;20024;-65
2022/08/24 12:00:02;;;;;;;1.48;1.10;;;24.50;51.30;;;;;;5060262;28;20079;-64
2022/08/24 12:02:35;;;;;;;1.38;1.20;;;24.60;51.40;;;;;;5059726;28;20344;-66
2022/08/24 12:05:24;;;;;;;1.35;1.17;;;24.50;51.30;;;;;;5059573;28;20391;-64
2022/08/24 12:08:14;;;;;;;1.77;1.20;;;24.50;51.30;;;;;;5059646;28;20029;-66
2022/08/24 12:11:11;;;;;;;1.60;1.13;;;24.50;51.30;;;;;;5060365;28;20064;-65
2022/08/24 12:13:43;;;;;;;1.73;1.20;;;24.50;51.30;;;;;;5060112;28;20618;-65
2022/08/24 12:16:17;;;;;;;1.10;1.00;;;24.50;51.30;;;;;;5059979;28;20036;-65
2022/08/24 12:19:29;;;;;;;2.13;1.30;;;24.60;51.30;;;;;;5059535;28;20049;-66
2022/08/24 12:21:59;;;;;;;1.60;1.20;;;24.60;51.30;;;;;;5014800;28;20042;-64
2022/08/24 12:24:24;;;;;;;1.50;1.10;;;24.60;51.30;;;;;;5060845;28;20560;-65
2022/08/24 12:26:55;;;;;;;1.60;1.10;;;24.60;51.30;;;;;;5075536;28;20028;-64
2022/08/24 12:29:48;;;;;;;1.40;1.10;;;24.60;51.40;;;;;;5059448;28;20040;-65
2022/08/24 12:32:20;;;;;;;1.65;1.08;;;24.60;51.40;;;;;;5059886;28;20036;-65
2022/08/24 12:34:58;;;;;;;1.15;0.93;;;24.60;51.40;;;;;;5061129;28;20108;-65
2022/08/24 12:37:48;;;;;;;1.63;1.20;;;24.60;51.40;;;;;;5058505;28;20075;-64
2022/08/24 12:40:38;;;;;;;1.35;1.10;;;24.60;51.40;;;;;;5058263;28;20021;-65
2022/08/24 12:43:32;;;;;;;1.50;1.10;;;24.70;51.50;;;;;;5060573;28;20027;-66
2022/08/24 12:46:00;;;;;;;1.50;1.10;;;24.70;51.50;;;;;;5059266;28;20025;-66
2022/08/24 12:48:45;;;;;;;1.73;1.27;;;24.60;51.40;;;;;;5060635;28;20053;-64
2022/08/24 12:51:23;;;;;;;2.05;1.17;;;24.70;51.50;;;;;;5059446;28;20051;-66
2022/08/24 12:54:30;;;;;;;1.40;1.10;;;24.60;51.50;;;;;;5063186;28;20029;-65
2022/08/24 12:57:38;;;;;;;1.10;1.00;;;24.70;52.10;;;;;;5063892;28;20035;-65
2022/08/24 13:00:20;;;;;;;1.45;1.00;;;24.70;51.60;;;;;;5063080;28;20488;-65
2022/08/24 13:02:56;;;;;;;1.10;1.00;;;24.70;51.60;;;;;;5064377;28;20044;-66
2022/08/24 13:05:22;;;;;;;1.33;1.00;;;24.70;51.60;;;;;;5061653;28;20059;-64
2022/08/24 13:07:51;;;;;;;1.40;1.25;;;24.70;51.60;;;;;;5062305;28;20033;-65
2022/08/24 13:10:23;;;;;;;1.38;1.10;;;24.70;52.10;;;;;;5063604;28;20032;-65
2022/08/24 13:13:07;;;;;;;1.20;1.10;;;24.70;51.60;;;;;;5062304;28;20080;-65
2022/08/24 13:15:36;;;;;;;1.10;0.95;;;24.70;51.60;;;;;;5063680;28;20112;-65
2022/08/24 13:18:07;;;;;;;1.05;0.88;;;24.70;51.60;;;;;;5062387;28;20052;-65
2022/08/24 13:20:42;;;;;;;1.70;1.20;;;24.70;51.60;;;;;;5063725;28;20029;-66
2022/08/24 13:23:14;;;;;;;2.03;1.10;;;24.70;51.60;;;;;;5063611;28;20480;-65
2022/08/24 13:25:46;;;;;;;1.40;1.00;;;24.70;51.60;;;;;;5061946;28;20037;-65
2022/08/24 13:28:23;;;;;;;1.35;1.08;;;24.70;51.60;;;;;;5062625;28;20085;-64